Terminal Aerodrome Forecast
Issued by NWS Columbia, SC

Home | Current Version | Previous Version | Text Only | Print | Product List | Glossary On
Versions: 1 2 3 4 5 6 7 8 9 10 11 12 13 14 15 16 17 18 19 20 21 22 23 24 25 26 27 28 29 30 31 32 33 34
438
FTUS42 KCAE 230520
TAFCAE
TAF
KCAE 230520Z 2306/2406 17005KT P6SM OVC015
      TEMPO 2309/2313 3SM BR SCT003 OVC008
     FM231500 22010KT P6SM OVC012
     FM231600 23012KT P6SM BKN035=

USA.gov is the U.S. government's official web portal to all federal, state and local government web resources and services.